Chihuahua Valley (212) Station Data

Red Flag Warning: No
Fire Weather Zone: 258
SDGE Region: Ramona
Lat/Lon: 33.387/-116.661

Observations

Time Wind Speed/Gust Temp(F) RH Fuel Moist Fuel Temp(F) Dewpt(F) Tmax(F) Tmin(F) Accum Precip 10-min Precip SL Press(mb)
4/30 12:00am 47 6 G 8 50° 21% - - 11° 67.5° 47.1° - - 1021.0
4/29 11:50pm 52 6 G 7 48° 23% - - 12° 67.5° 47.1° - - 1022.0
4/29 11:40pm 47 6 G 7 47° 26% - - 14° 67.5° 47.1° - - 1022.0
4/29 11:30pm 46 7 G 8 48° 25% - - 15° 67.5° 47.3° - - 1022.0
4/29 11:20pm 46 6 G 8 49° 26% - - 15° 67.5° 47.3° - - 1022.0
4/29 11:10pm 43 7 G 8 49° 27% - - 16° 67.5° 47.3° - - 1021.0
4/29 11:00pm 51 6 G 7 48° 28% - - 16° 67.5° 47.3° - - 1022.0
4/29 10:50pm 45 6 G 7 49° 27% - - 16° 67.5° 47.4° - - 1022.0
4/29 10:40pm 49 6 G 7 48° 27% - - 16° 67.5° 47.4° - - 1022.0
4/29 10:30pm 50 6 G 7 48° 28% - - 16° 67.5° 47.4° - - 1022.0
4/29 10:20pm 45 5 G 6 49° 29% - - 18° 67.5° 47.8° - - 1022.0
4/29 10:10pm 47 5 G 7 49° 29% - - 18° 67.5° 47.8° - - 1022.0
4/29 10:00pm 49 6 G 6 49° 30% - - 19° 67.5° 47.8° - - 1021.0
4/29 9:50pm 48 6 G 6 49° 30% - - 19° 67.5° 47.8° - - 1021.0
4/29 9:40pm 50 5 G 6 49° 30% - - 19° 67.5° 47.8° - - 1021.0
4/29 9:30pm 49 5 G 6 49° 31% - - 19° 67.5° 47.8° - - 1021.0
4/29 9:20pm 50 5 G 7 50° 29% - - 19° 67.5° 47.8° - - 1021.0
4/29 9:10pm 65 4 G 6 51° 28% - - 20° 67.5° 47.8° - - 1020.0
4/29 9:00pm 59 5 G 5 52° 28% - - 20° 67.5° 47.8° - - 1020.0
4/29 8:50pm 94 4 G 5 53° 27% - - 20° 67.5° 47.8° - - 1020.0
4/29 8:40pm 90 4 G 5 52° 27% - - 19° 67.5° 47.8° - - 1020.0
4/29 8:30pm 80 3 G 5 53° 26% - - 18° 67.5° 47.8° - - 1019.0
4/29 8:20pm 80 4 G 5 52° 25% - - 17° 67.5° 47.8° - - 1019.0
4/29 8:10pm 65 4 G 6 53° 20% - - 13° 67.5° 47.8° - - 1019.0
4/29 8:00pm 45 6 G 8 55° 17% - - 11° 67.5° 47.8° - - 1018.0
4/29 7:50pm 48 5 G 6 56° 17% - - 12° 67.5° 47.8° - - 1017.0
4/29 7:40pm 61 3 G 6 60° 17% - - 15° 67.5° 47.8° - - 1016.0
4/29 7:30pm 227 1 G 3 62° 16% - - 16° 67.5° 47.8° - - 1016.0
4/29 7:20pm 170 1 G 3 63° 15% - - 14° 67.5° 47.8° - - 1015.0
4/29 7:10pm 154 3 G 6 63° 12% - - 10° 67.5° 47.8° - - 1015.0
4/29 7:00pm 18 4 G 10 63° 11% - - 67.5° 47.8° - - 1015.0
4/29 6:50pm 14 6 G 11 64° 11% - - 67.5° 47.8° - - 1014.0
4/29 6:40pm 10 5 G 11 64° 11% - - 67.5° 47.8° - - 1014.0
4/29 6:30pm 28 8 G 13 64° 10% - - 67.5° 47.8° - - 1014.0
4/29 6:20pm 18 6 G 11 65° 10% - - 67.5° 47.8° - - 1014.0
4/29 6:10pm 28 8 G 13 65° 10% - - 67.5° 47.8° - - 1014.0
4/29 6:00pm 27 6 G 12 65° 10% - - 67.5° 47.8° - - 1014.0
4/29 5:50pm 21 7 G 12 65° 10% - - 67.5° 47.8° - - 1014.0
4/29 5:40pm 39 7 G 12 66° 10% - - 67.5° 47.8° - - 1014.0
4/29 5:30pm 15 8 G 13 66° 10% - - 67.5° 47.8° - - 1014.0
4/29 5:20pm 40 7 G 12 66° 10% - - 67.5° 47.8° - - 1014.0
4/29 5:10pm 60 6 G 14 66° 10% - - 67.5° 47.8° - - 1014.0
4/29 5:00pm 39 7 G 17 66° 10% - - 67.5° 47.8° - - 1013.0
4/29 4:50pm 44 8 G 15 66° 10% - - 67.5° 47.8° - - 1014.0
4/29 4:40pm 27 8 G 17 66° 9% - - 67.5° 47.8° - - 1013.0
4/29 4:30pm 41 8 G 15 66° 9% - - 67.5° 47.8° - - 1013.0
4/29 4:20pm 36 7 G 12 66° 9% - - 67.5° 47.8° - - 1013.0
4/29 4:10pm 37 10 G 17 66° 9% - - 67° 47.8° - - 1013.0
4/29 4:00pm 24 8 G 15 66° 9% - - 67° 47.8° - - 1013.0
4/29 3:50pm 30 9 G 17 65° 9% - - 66.3° 47.8° - - 1014.0
4/29 3:40pm 30 11 G 20 65° 10% - - 66.3° 47.8° - - 1014.0
4/29 3:30pm 42 11 G 20 65° 10% - - 66.3° 47.8° - - 1014.0
4/29 3:20pm 44 12 G 21 65° 10% - - 65.9° 47.8° - - 1014.0
4/29 3:10pm 32 13 G 20 65° 10% - - 65.5° 47.8° - - 1014.0
4/29 3:00pm 30 13 G 26 64° 11% - - 65.5° 47.8° - - 1014.0
4/29 2:50pm 41 15 G 22 64° 11% - - 64.5° 47.8° - - 1014.0
4/29 2:40pm 52 11 G 20 63° 11% - - 64.5° 47.8° - - 1015.0
4/29 2:30pm 21 9 G 16 64° 11% - - 64.5° 47.8° - - 1015.0
4/29 2:20pm 17 10 G 17 64° 11% - - 64.5° 47.8° - - 1015.0
4/29 2:10pm 28 9 G 18 64° 11% - - 64.4° 47.8° - - 1015.0
4/29 2:00pm 36 9 G 15 63° 12% - - 63.8° 47.8° - - 1015.0
4/29 1:50pm 11 10 G 19 63° 12% - - 63.6° 47.8° - - 1015.0
4/29 1:40pm 19 8 G 14 63° 12% - - 10° 63.6° 47.8° - - 1015.0
4/29 1:30pm 28 8 G 16 63° 13% - - 10° 63.6° 47.8° - - 1015.0
4/29 1:20pm 20 8 G 17 63° 13% - - 10° 63.6° 47.8° - - 1015.0
4/29 1:10pm 16 8 G 15 62° 12% - - 10° 63.6° 47.8° - - 1015.0
4/29 1:00pm 22 8 G 16 62° 13% - - 10° 62.9° 47.8° - - 1015.0
4/29 12:50pm 22 9 G 18 62° 13% - - 10° 62.5° 47.8° - - 1015.0
4/29 12:40pm 13 8 G 16 61° 13% - - 10° 62.5° 47.8° - - 1015.0
4/29 12:30pm 21 8 G 15 61° 13% - - 10° 62° 47.8° - - 1015.0
4/29 12:20pm 42 8 G 18 60° 14% - - 11° 61.4° 47.8° - - 1016.0
4/29 12:10pm 31 10 G 17 59° 14% - - 10° 60.3° 47.8° - - 1016.0
4/29 12:00pm 34 11 G 19 59° 14% - - 60.3° 47.8° - - 1016.0
4/29 11:50am 43 12 G 22 59° 14% - - 10° 60.3° 47.8° - - 1016.0
4/29 11:40am 36 13 G 19 59° 13% - - 60.2° 47.8° - - 1016.0
4/29 11:30am 8 10 G 17 59° 13% - - 60° 47.8° - - 1016.0
4/29 11:20am 28 11 G 20 59° 13% - - 60° 47.8° - - 1016.0
4/29 11:10am 17 10 G 20 59° 13% - - 60° 47.8° - - 1016.0
4/29 11:00am 16 11 G 19 59° 13% - - 60° 47.8° - - 1015.0
4/29 10:50am 22 12 G 20 58° 14% - - 59.5° 47.8° - - 1015.0
4/29 10:40am 23 11 G 18 59° 14% - - 10° 59.3° 47.8° - - 1015.0
4/29 10:30am 28 11 G 19 58° 14% - - 10° 59° 47.8° - - 1016.0
4/29 10:20am 30 10 G 17 58° 14% - - 10° 59° 47.8° - - 1016.0
4/29 10:10am 29 11 G 18 57° 14% - - 58.1° 47.8° - - 1016.0
4/29 10:00am 27 12 G 22 56° 15% - - 57.7° 47.8° - - 1016.0
4/29 9:50am 25 15 G 26 56° 14% - - 56.4° 47.8° - - 1015.0
4/29 9:40am 24 16 G 27 55° 14% - - 56.1° 47.8° - - 1015.0
4/29 9:30am 20 15 G 27 55° 15% - - 55.4° 47.8° - - 1016.0
4/29 9:20am 21 15 G 26 54° 16% - - 55.2° 47.8° - - 1016.0
4/29 9:10am 25 13 G 24 54° 17% - - 10° 54.5° 47.8° - - 1016.0
4/29 9:00am 23 13 G 21 53° 17% - - 10° 54.5° 47.8° - - 1016.0
4/29 8:50am 29 14 G 24 52° 18% - - 11° 54.5° 47.8° - - 1016.0
4/29 8:40am 26 14 G 23 52° 18% - - 10° 54.5° 47.8° - - 1016.0
4/29 8:30am 22 15 G 24 51° 20% - - 11° 54.5° 47.8° - - 1016.0
4/29 8:20am 21 15 G 31 51° 20% - - 11° 54.5° 47.8° - - 1017.0
4/29 8:10am 25 14 G 25 51° 20% - - 11° 54.5° 47.8° - - 1017.0
4/29 8:00am 41 13 G 21 51° 19% - - 10° 54.5° 47.8° - - 1017.0
4/29 7:50am 36 12 G 21 51° 18% - - 54.5° 47.8° - - 1017.0
4/29 7:40am 18 15 G 27 50° 19% - - 54.5° 47.8° - - 1017.0
4/29 7:30am 19 15 G 26 50° 19% - - 54.5° 47.8° - - 1016.0
4/29 7:20am 21 14 G 23 49° 19% - - 54.5° 47.8° - - 1016.0
4/29 7:10am 31 16 G 26 49° 18% - - 54.5° 47.8° - - 1016.0
4/29 7:00am 29 17 G 27 49° 17% - - 54.5° 47.8° - - 1016.0
4/29 6:50am 21 16 G 28 49° 17% - - 54.5° 47.8° - - 1016.0
4/29 6:40am 17 14 G 26 48° 17% - - 54.5° 47.8° - - 1017.0
4/29 6:30am 27 15 G 27 48° 16% - - 54.5° 47.8° - - 1017.0
4/29 6:20am 31 12 G 20 48° 15% - - 54.5° 47.9° - - 1016.0
4/29 6:10am 31 10 G 19 48° 15% - - 54.5° 47.9° - - 1016.0
4/29 6:00am 33 10 G 19 48° 15% - - 54.5° 47.9° - - 1017.0
4/29 5:50am 35 12 G 21 49° 16% - - 54.5° 48.3° - - 1016.0
4/29 5:40am 42 15 G 26 49° 16% - - 54.5° 48.4° - - 1016.0
4/29 5:30am 33 16 G 29 49° 16% - - 54.5° 48.6° - - 1015.0
4/29 5:20am 24 17 G 30 49° 17% - - 54.5° 48.6° - - 1015.0
4/29 5:10am 21 20 G 32 49° 16% - - 54.5° 48.9° - - 1015.0
4/29 5:00am 17 19 G 31 49° 17% - - 54.5° 49° - - 1015.0
4/29 4:50am 19 21 G 39 49° 17% - - 54.5° 49° - - 1014.0
4/29 4:40am 20 21 G 31 49° 16% - - 54.5° 49.1° - - 1014.0
4/29 4:30am 21 20 G 32 49° 16% - - 54.5° 49.1° - - 1014.0
4/29 4:20am 18 19 G 30 50° 16% - - 54.5° 49.1° - - 1014.0
4/29 4:10am 16 20 G 29 50° 16% - - 54.5° 49.5° - - 1014.0
4/29 4:00am 19 21 G 33 50° 16% - - 54.5° 49.6° - - 1014.0
4/29 3:50am 16 18 G 34 50° 16% - - 54.5° 49.6° - - 1014.0
4/29 3:40am 19 21 G 34 50° 16% - - 54.5° 50° - - 1014.0
4/29 3:30am 19 20 G 29 50° 16% - - 54.5° 50.2° - - 1014.0
4/29 3:20am 23 20 G 33 51° 15% - - 54.5° 50.3° - - 1014.0
4/29 3:10am 20 21 G 32 51° 15% - - 54.5° 50.4° - - 1014.0
4/29 3:00am 20 20 G 34 51° 15% - - 54.5° 50.4° - - 1014.0
4/29 2:50am 27 19 G 31 51° 15% - - 54.5° 50.6° - - 1014.0
4/29 2:40am 24 19 G 35 51° 15% - - 54.5° 50.7° - - 1014.0
4/29 2:30am 24 21 G 33 51° 15% - - 54.5° 50.9° - - 1014.0
4/29 2:20am 19 18 G 31 51° 15% - - 54.5° 50.9° - - 1014.0
4/29 2:10am 27 17 G 31 51° 15% - - 54.5° 51.2° - - 1014.0
4/29 2:00am 21 20 G 34 52° 15% - - 54.5° 51.3° - - 1013.0
4/29 1:50am 22 19 G 32 52° 16% - - 54.5° 51.4° - - 1013.0
4/29 1:40am 20 19 G 35 52° 16% - - 54.5° 51.5° - - 1013.0
4/29 1:30am 21 19 G 35 52° 16% - - 54.5° 51.8° - - 1013.0
4/29 1:20am 23 19 G 30 52° 16% - - 54.5° 52.1° - - 1013.0
4/29 1:10am 19 19 G 28 53° 15% - - 54.5° 52.2° - - 1013.0
4/29 1:00am 21 18 G 31 53° 15% - - 54.5° 52.6° - - 1013.0
4/29 12:50am 23 20 G 33 53° 14% - - 54.5° 52.9° - - 1013.0
4/29 12:40am 29 18 G 36 53° 14% - - 54.5° 53° - - 1013.0
4/29 12:30am 24 18 G 33 54° 14% - - 54.5° 53.2° - - 1012.0
4/29 12:20am 22 18 G 33 54° 14% - - 54.5° 53.4° - - 1012.0
4/29 12:10am 24 19 G 29 54° 13% - - 54.5° 54° - - 1012.0
4/29 12:00am 27 19 G 33 54° 13% - - 66.7° 47° - - 1012.0
4/28 11:50pm 23 20 G 34 55° 13% - - 66.7° 47° - - 1012.0
4/28 11:40pm 26 17 G 31 55° 13% - - 66.7° 47° - - 1012.0
4/28 11:30pm 23 18 G 28 55° 13% - - 66.7° 47° - - 1011.0
4/28 11:20pm 24 20 G 32 55° 13% - - 66.7° 47° - - 1011.0
4/28 11:10pm 26 17 G 28 55° 13% - - 66.7° 47° - - 1011.0
4/28 11:00pm 24 15 G 28 55° 13% - - 66.7° 47° - - 1011.0
4/28 10:50pm 23 15 G 28 55° 13% - - 66.7° 47° - - 1011.0
4/28 10:40pm 29 15 G 24 56° 13% - - 66.7° 47° - - 1011.0
4/28 10:30pm 26 14 G 27 56° 14% - - 66.7° 47° - - 1011.0
4/28 10:20pm 20 10 G 20 56° 17% - - 12° 66.7° 47° - - 1011.0
4/28 10:10pm 12 7 G 13 56° 21% - - 16° 66.7° 47° - - 1011.0
4/28 10:00pm 11 9 G 17 56° 27% - - 23° 66.7° 47° - - 1011.0
4/28 9:50pm 10 8 G 13 55° 41% - - 32° 66.7° 47° - - 1011.0
4/28 9:40pm 6 6 G 10 55° 43% - - 33° 66.7° 47° - - 1011.0
4/28 9:30pm 352 6 G 9 55° 43% - - 33° 66.7° 47° - - 1011.0
4/28 9:20pm 356 6 G 10 55° 43% - - 33° 66.7° 47° - - 1011.0
4/28 9:10pm 4 5 G 8 54° 46% - - 34° 66.7° 47° - - 1011.0
4/28 9:00pm 10 4 G 6 54° 47% - - 35° 66.7° 47° - - 1010.0
4/28 8:50pm 337 4 G 7 56° 45% - - 35° 66.7° 47° - - 1010.0
4/28 8:40pm 321 5 G 10 56° 48% - - 36° 66.7° 47° - - 1010.0
4/28 8:30pm 332 4 G 8 54° 50% - - 36° 66.7° 47° - - 1010.0
4/28 8:20pm 359 3 G 6 53° 51% - - 36° 66.7° 47° - - 1010.0
4/28 8:10pm 33 3 G 4 54° 51% - - 37° 66.7° 47° - - 1009.0
4/28 8:00pm 21 3 G 4 55° 50% - - 37° 66.7° 47° - - 1009.0
4/28 7:50pm 177 2 G 4 55° 49% - - 37° 66.7° 47° - - 1009.0
4/28 7:40pm 182 3 G 10 56° 48% - - 37° 66.7° 47° - - 1009.0
4/28 7:30pm 212 4 G 8 58° 45% - - 37° 66.7° 47° - - 1008.0
4/28 7:20pm 258 5 G 10 60° 43% - - 37° 66.7° 47° - - 1007.0
4/28 7:10pm 277 7 G 13 60° 43% - - 37° 66.7° 47° - - 1007.0
4/28 7:00pm 277 8 G 12 61° 41% - - 37° 66.7° 47° - - 1007.0
4/28 6:50pm 282 6 G 11 62° 37% - - 35° 66.7° 47° - - 1006.0
4/28 6:40pm 279 8 G 15 62° 36% - - 34° 66.7° 47° - - 1006.0
4/28 6:30pm 278 7 G 12 62° 33% - - 33° 66.7° 47° - - 1006.0
4/28 6:20pm 268 7 G 13 63° 33% - - 33° 66.7° 47° - - 1006.0
4/28 6:10pm 263 7 G 14 63° 32% - - 33° 66.7° 47° - - 1005.0
4/28 6:00pm 273 7 G 14 63° 31% - - 32° 66.7° 47° - - 1005.0